Time;durP1;ratioP1;P1;durP2;ratioP2;P2;SDS_P1;SDS_P2;PMS_P1;PMS_P2;Temp;Humidity;BMP_temperature;BMP_pressure;BME280_temperature;BME280_humidity;BME280_pressure;Samples;Min_cycle;Max_cycle;Signal;HPM_P1;HPM_P2
2022/04/24 00:01:11;;;;;;;20.77;10.02;;;;;;;;;;4448888;32;20247;-55
2022/04/24 00:03:36;;;;;;;16.43;7.90;;;;;;;;;;4425135;32;20668;-55
2022/04/24 00:06:02;;;;;;;11.52;6.85;;;;;;;;;;4447511;32;20236;-54
2022/04/24 00:08:28;;;;;;;18.20;6.00;;;;;;;;;;4442384;32;20260;-54
2022/04/24 00:10:53;;;;;;;15.98;6.75;;;;;;;;;;4426553;32;20236;-54
2022/04/24 00:13:19;;;;;;;10.77;6.15;;;;;;;;;;4446108;32;20723;-54
2022/04/24 00:15:44;;;;;;;14.38;5.78;;;;;;;;;;4454279;32;20272;-54
2022/04/24 00:18:10;;;;;;;12.73;4.97;;;;;;;;;;4445774;32;20265;-53
2022/04/24 00:20:35;;;;;;;10.57;5.62;;;;;;;;;;4442367;32;20247;-53
2022/04/24 00:23:01;;;;;;;12.10;5.55;;;;;;;;;;4442123;32;20216;-54
2022/04/24 00:25:26;;;;;;;8.67;5.23;;;;;;;;;;4441339;32;20220;-54
2022/04/24 00:27:52;;;;;;;16.27;5.00;;;;;;;;;;4436204;32;20334;-54
2022/04/24 00:30:17;;;;;;;12.52;6.82;;;;;;;;;;4451174;32;20212;-53
2022/04/24 00:32:43;;;;;;;10.68;4.45;;;;;;;;;;4451606;32;20396;-53
2022/04/24 00:35:09;;;;;;;19.85;6.87;;;;;;;;;;4436513;32;20351;-54
2022/04/24 00:37:35;;;;;;;17.33;7.20;;;;;;;;;;4438466;32;20721;-54
2022/04/24 00:40:00;;;;;;;17.37;7.87;;;;;;;;;;4441712;32;20224;-54
2022/04/24 00:42:26;;;;;;;23.40;7.57;;;;;;;;;;4450708;32;20236;-54
2022/04/24 00:44:51;;;;;;;23.87;9.53;;;;;;;;;;4451355;32;20356;-53
2022/04/24 00:47:20;;;;;;;26.97;10.73;;;;;;;;;;4450217;32;20643;-53
2022/04/24 00:49:46;;;;;;;20.80;10.30;;;;;;;;;;4444369;32;20266;-54
2022/04/24 00:52:12;;;;;;;16.20;8.07;;;;;;;;;;4448719;32;20693;-54
2022/04/24 00:54:38;;;;;;;26.23;9.00;;;;;;;;;;4442317;32;20308;-54
2022/04/24 00:57:09;;;;;;;24.47;8.40;;;;;;;;;;4435741;32;20271;-54
2022/04/24 00:59:35;;;;;;;17.13;8.83;;;;;;;;;;4449850;32;20294;-55
2022/04/24 01:02:05;;;;;;;21.08;8.75;;;;;;;;;;4451315;32;20297;-54
2022/04/24 01:04:36;;;;;;;26.83;10.07;;;;;;;;;;4458601;32;20255;-54
2022/04/24 01:07:02;;;;;;;19.67;10.13;;;;;;;;;;4450763;32;20657;-55
2022/04/24 01:09:32;;;;;;;35.60;10.70;;;;;;;;;;4445720;32;20256;-54
2022/04/24 01:11:57;;;;;;;20.20;8.33;;;;;;;;;;4436383;32;20348;-53
2022/04/24 01:14:28;;;;;;;25.90;9.30;;;;;;;;;;4464698;32;20296;-53
2022/04/24 01:16:54;;;;;;;30.67;8.80;;;;;;;;;;4465837;32;20286;-53
2022/04/24 01:19:20;;;;;;;25.53;9.13;;;;;;;;;;4452418;32;20317;-54
2022/04/24 01:21:48;;;;;;;12.63;7.40;;;;;;;;;;4451064;32;20232;-54
2022/04/24 01:24:15;;;;;;;13.93;6.37;;;;;;;;;;4450558;32;20284;-53
2022/04/24 01:26:41;;;;;;;19.70;7.30;;;;;;;;;;4445193;32;20300;-54
2022/04/24 01:29:06;;;;;;;19.07;7.60;;;;;;;;;;4445443;32;20264;-53
2022/04/24 01:31:33;;;;;;;17.67;7.17;;;;;;;;;;4450539;32;20307;-52
2022/04/24 01:33:59;;;;;;;21.77;7.67;;;;;;;;;;4449628;32;20292;-53
2022/04/24 01:36:25;;;;;;;16.67;7.23;;;;;;;;;;4448659;32;20276;-53
2022/04/24 01:38:50;;;;;;;15.47;6.67;;;;;;;;;;4447745;32;20262;-54
2022/04/24 01:41:16;;;;;;;15.27;7.20;;;;;;;;;;4447780;32;20383;-53
2022/04/24 01:43:42;;;;;;;28.87;8.93;;;;;;;;;;4446164;32;20308;-53
2022/04/24 01:46:08;;;;;;;11.10;5.60;;;;;;;;;;4450777;32;20576;-54
2022/04/24 01:48:35;;;;;;;17.53;7.60;;;;;;;;;;4445707;32;20384;-53
2022/04/24 01:51:01;;;;;;;16.67;6.30;;;;;;;;;;4448041;32;20282;-54
2022/04/24 01:53:28;;;;;;;13.67;5.43;;;;;;;;;;4428096;32;20270;-54
2022/04/24 01:55:57;;;;;;;12.73;6.27;;;;;;;;;;4442445;32;20231;-53
2022/04/24 01:58:24;;;;;;;11.40;6.40;;;;;;;;;;4447095;32;20558;-54
2022/04/24 02:00:49;;;;;;;23.90;10.30;;;;;;;;;;4438296;32;20894;-54
2022/04/24 02:03:15;;;;;;;12.27;7.43;;;;;;;;;;4439009;32;20359;-54
2022/04/24 02:05:40;;;;;;;24.30;11.30;;;;;;;;;;4441372;32;20256;-53
2022/04/24 02:08:06;;;;;;;22.93;11.33;;;;;;;;;;4449089;32;20288;-54
2022/04/24 02:10:32;;;;;;;22.93;11.57;;;;;;;;;;4447329;32;20244;-52
2022/04/24 02:12:58;;;;;;;28.83;14.80;;;;;;;;;;4441906;32;20216;-53
2022/04/24 02:15:23;;;;;;;31.93;15.70;;;;;;;;;;4449508;32;20321;-53
2022/04/24 02:17:49;;;;;;;21.97;13.70;;;;;;;;;;4433157;32;20630;-53
2022/04/24 02:20:14;;;;;;;23.67;11.27;;;;;;;;;;4445507;32;20556;-53
2022/04/24 02:22:40;;;;;;;20.93;11.13;;;;;;;;;;4436942;32;20197;-54
2022/04/24 02:25:06;;;;;;;18.50;9.67;;;;;;;;;;4434732;32;20279;-54
2022/04/24 02:27:32;;;;;;;18.10;9.23;;;;;;;;;;4438656;32;20262;-54
2022/04/24 02:29:57;;;;;;;19.90;10.57;;;;;;;;;;4448043;32;20318;-53
2022/04/24 02:32:23;;;;;;;25.90;11.03;;;;;;;;;;4449008;32;20670;-54
2022/04/24 02:34:48;;;;;;;22.10;10.93;;;;;;;;;;4438130;32;20228;-55
2022/04/24 02:37:14;;;;;;;25.03;10.87;;;;;;;;;;4435356;32;20315;-53
2022/04/24 02:39:40;;;;;;;23.27;12.50;;;;;;;;;;4440795;32;20256;-54
2022/04/24 02:42:05;;;;;;;43.50;20.90;;;;;;;;;;4434963;32;20354;-54
2022/04/24 02:44:31;;;;;;;52.03;22.80;;;;;;;;;;4437352;32;20670;-56
2022/04/24 02:46:56;;;;;;;47.87;22.33;;;;;;;;;;4434719;32;20259;-55
2022/04/24 02:49:22;;;;;;;30.70;16.07;;;;;;;;;;4430532;32;20255;-53
2022/04/24 02:51:47;;;;;;;30.70;14.43;;;;;;;;;;4437241;32;20276;-53
2022/04/24 02:54:13;;;;;;;26.60;13.80;;;;;;;;;;4436864;32;20301;-54
2022/04/24 02:56:38;;;;;;;33.27;14.53;;;;;;;;;;4441960;32;20260;-55
2022/04/24 02:59:04;;;;;;;29.43;15.60;;;;;;;;;;4447654;32;20700;-54
2022/04/24 03:01:30;;;;;;;31.17;16.67;;;;;;;;;;4446417;32;20232;-53
2022/04/24 03:03:56;;;;;;;26.17;13.97;;;;;;;;;;4440004;32;20722;-54
2022/04/24 03:06:22;;;;;;;22.53;12.53;;;;;;;;;;4442834;32;20224;-54
2022/04/24 03:08:47;;;;;;;21.67;11.23;;;;;;;;;;4441855;32;20252;-54
2022/04/24 03:11:14;;;;;;;23.10;10.87;;;;;;;;;;4434339;32;20266;-53
2022/04/24 03:13:40;;;;;;;19.43;11.47;;;;;;;;;;4448039;32;20251;-54
2022/04/24 03:16:06;;;;;;;18.00;9.97;;;;;;;;;;4447939;32;20232;-54
2022/04/24 03:18:31;;;;;;;20.03;10.57;;;;;;;;;;4444530;32;20495;-54
2022/04/24 03:20:57;;;;;;;22.33;10.13;;;;;;;;;;4442085;32;20224;-52
2022/04/24 03:23:22;;;;;;;16.97;9.13;;;;;;;;;;4440879;32;20275;-52
2022/04/24 03:25:49;;;;;;;17.13;6.50;;;;;;;;;;4434615;32;20316;-53
2022/04/24 03:28:15;;;;;;;15.23;6.47;;;;;;;;;;4444018;32;20315;-52
2022/04/24 03:30:40;;;;;;;19.47;5.77;;;;;;;;;;4443469;32;20735;-53
2022/04/24 03:33:06;;;;;;;11.70;6.57;;;;;;;;;;4424214;32;20690;-52
2022/04/24 03:35:31;;;;;;;13.63;9.50;;;;;;;;;;4444453;32;20263;-52
2022/04/24 03:37:56;;;;;;;19.07;11.77;;;;;;;;;;4438328;32;20203;-53
2022/04/24 03:40:23;;;;;;;16.30;9.30;;;;;;;;;;4439225;32;20229;-53
2022/04/24 03:42:48;;;;;;;16.77;8.20;;;;;;;;;;4429847;32;20213;-52
2022/04/24 03:45:14;;;;;;;13.07;7.27;;;;;;;;;;4439513;32;20235;-52
2022/04/24 03:47:39;;;;;;;10.30;6.13;;;;;;;;;;4437189;32;20204;-54
2022/04/24 03:50:06;;;;;;;10.83;6.00;;;;;;;;;;4445215;32;20330;-55
2022/04/24 03:52:32;;;;;;;17.47;7.73;;;;;;;;;;4428818;32;20260;-54
2022/04/24 03:54:57;;;;;;;19.13;7.20;;;;;;;;;;4448537;32;20805;-55
2022/04/24 03:57:23;;;;;;;19.17;8.80;;;;;;;;;;4446779;32;20316;-54
2022/04/24 03:59:48;;;;;;;14.57;9.00;;;;;;;;;;4448273;32;20572;-53
2022/04/24 04:02:14;;;;;;;21.40;11.87;;;;;;;;;;4442650;32;20320;-53
2022/04/24 04:04:39;;;;;;;29.63;14.10;;;;;;;;;;4446432;32;20291;-54
2022/04/24 04:07:05;;;;;;;36.60;18.17;;;;;;;;;;4449344;32;20338;-54
2022/04/24 04:09:31;;;;;;;32.77;16.77;;;;;;;;;;4437715;32;20221;-53
2022/04/24 04:11:57;;;;;;;22.43;10.40;;;;;;;;;;4446419;32;20350;-53
2022/04/24 04:14:23;;;;;;;17.37;8.97;;;;;;;;;;4450674;32;20593;-55
2022/04/24 04:16:49;;;;;;;14.87;10.23;;;;;;;;;;4449646;32;20266;-55
2022/04/24 04:19:14;;;;;;;19.40;11.97;;;;;;;;;;4446582;32;20477;-55
2022/04/24 04:21:40;;;;;;;25.17;13.40;;;;;;;;;;4431413;32;20981;-54
2022/04/24 04:24:06;;;;;;;23.93;14.60;;;;;;;;;;4451953;32;20263;-54
2022/04/24 04:26:32;;;;;;;26.73;12.80;;;;;;;;;;4449405;32;20266;-54
2022/04/24 04:28:57;;;;;;;28.67;11.57;;;;;;;;;;4451255;32;20748;-54
2022/04/24 04:31:23;;;;;;;28.70;12.30;;;;;;;;;;4446842;32;20727;-55
2022/04/24 04:33:48;;;;;;;31.13;17.60;;;;;;;;;;4437831;32;20275;-54
2022/04/24 04:36:14;;;;;;;33.53;16.57;;;;;;;;;;4442954;32;20378;-54
2022/04/24 04:38:39;;;;;;;48.30;18.40;;;;;;;;;;4448384;32;20216;-54
2022/04/24 04:41:05;;;;;;;31.63;16.13;;;;;;;;;;4432537;32;20389;-54
2022/04/24 04:43:31;;;;;;;24.37;12.33;;;;;;;;;;4449932;32;20682;-54
2022/04/24 04:45:56;;;;;;;32.17;14.27;;;;;;;;;;4450090;32;20248;-54
2022/04/24 04:48:22;;;;;;;30.43;15.77;;;;;;;;;;4447227;32;20283;-54
2022/04/24 04:50:47;;;;;;;32.67;15.73;;;;;;;;;;4441705;32;20572;-55
2022/04/24 04:53:13;;;;;;;38.67;16.63;;;;;;;;;;4440916;32;20256;-54
2022/04/24 04:55:38;;;;;;;33.73;16.03;;;;;;;;;;4448577;32;20237;-54
2022/04/24 04:58:04;;;;;;;29.23;12.50;;;;;;;;;;4445581;32;20288;-54
2022/04/24 05:00:29;;;;;;;17.13;9.10;;;;;;;;;;4435641;32;20768;-54
2022/04/24 05:02:55;;;;;;;23.67;9.33;;;;;;;;;;4439243;32;20384;-54
2022/04/24 05:05:21;;;;;;;18.60;9.63;;;;;;;;;;4438110;32;20298;-54
2022/04/24 05:07:47;;;;;;;21.97;9.90;;;;;;;;;;4449402;32;20244;-53
2022/04/24 05:10:13;;;;;;;21.90;9.43;;;;;;;;;;4449657;32;20814;-54
2022/04/24 05:12:38;;;;;;;23.13;9.03;;;;;;;;;;4449213;32;20333;-54
2022/04/24 05:15:09;;;;;;;18.07;7.90;;;;;;;;;;4450923;32;20674;-54
2022/04/24 05:17:35;;;;;;;18.77;8.33;;;;;;;;;;4446063;32;20370;-54
2022/04/24 05:20:02;;;;;;;16.60;9.33;;;;;;;;;;4449472;32;20266;-54
2022/04/24 05:22:28;;;;;;;19.00;8.77;;;;;;;;;;4450278;32;20224;-54
2022/04/24 05:24:53;;;;;;;13.17;8.13;;;;;;;;;;4449030;32;20329;-53
2022/04/24 05:27:22;;;;;;;19.70;7.67;;;;;;;;;;4450130;32;20691;-54
2022/04/24 05:29:48;;;;;;;16.23;7.07;;;;;;;;;;4425631;32;20241;-53
2022/04/24 05:32:14;;;;;;;16.33;6.87;;;;;;;;;;4439177;32;20299;-54
2022/04/24 05:34:40;;;;;;;12.03;7.23;;;;;;;;;;4449843;32;20230;-54
2022/04/24 05:37:06;;;;;;;21.13;8.13;;;;;;;;;;4426403;32;20319;-53
2022/04/24 05:39:32;;;;;;;12.60;6.77;;;;;;;;;;4442514;32;20295;-54
2022/04/24 05:41:57;;;;;;;14.03;6.80;;;;;;;;;;4446483;32;20224;-53
2022/04/24 05:44:23;;;;;;;18.20;5.80;;;;;;;;;;4423105;32;20224;-53
2022/04/24 05:46:48;;;;;;;13.50;6.50;;;;;;;;;;4449254;32;20237;-53
2022/04/24 05:49:14;;;;;;;14.80;5.90;;;;;;;;;;4448436;32;20350;-53
2022/04/24 05:51:39;;;;;;;15.13;6.93;;;;;;;;;;4448644;32;20398;-53
2022/04/24 05:54:07;;;;;;;17.63;8.07;;;;;;;;;;4445212;32;20305;-54
2022/04/24 05:56:33;;;;;;;14.57;8.80;;;;;;;;;;4438734;32;20221;-54
2022/04/24 05:58:58;;;;;;;12.43;8.63;;;;;;;;;;4446165;32;20235;-54
2022/04/24 06:01:24;;;;;;;15.63;8.80;;;;;;;;;;4434758;32;20240;-53
2022/04/24 06:03:49;;;;;;;17.97;8.57;;;;;;;;;;4449539;32;20216;-54
2022/04/24 06:06:16;;;;;;;20.47;9.10;;;;;;;;;;4443255;32;20323;-52
2022/04/24 06:08:42;;;;;;;12.47;7.60;;;;;;;;;;4446035;32;20213;-52
2022/04/24 06:11:07;;;;;;;19.17;8.30;;;;;;;;;;4449552;32;20251;-52
2022/04/24 06:13:33;;;;;;;12.07;6.57;;;;;;;;;;4437673;32;20264;-52
2022/04/24 06:15:59;;;;;;;16.03;7.50;;;;;;;;;;4442097;32;20249;-52
2022/04/24 06:18:25;;;;;;;11.97;6.93;;;;;;;;;;4445810;32;20314;-52
2022/04/24 06:20:51;;;;;;;12.80;6.30;;;;;;;;;;4444719;32;20624;-52
2022/04/24 06:23:16;;;;;;;10.13;5.80;;;;;;;;;;4447861;32;20212;-52
2022/04/24 06:25:42;;;;;;;11.03;6.00;;;;;;;;;;4449150;32;20257;-52
2022/04/24 06:28:08;;;;;;;8.63;5.57;;;;;;;;;;4442055;32;20224;-52
2022/04/24 06:30:40;;;;;;;15.23;6.30;;;;;;;;;;4434633;32;20294;-52
2022/04/24 06:33:09;;;;;;;10.40;5.90;;;;;;;;;;4444525;32;20348;-51
2022/04/24 06:35:35;;;;;;;17.50;6.53;;;;;;;;;;4442863;32;20240;-51
2022/04/24 06:38:00;;;;;;;17.00;6.23;;;;;;;;;;4439383;32;20262;-52
2022/04/24 06:40:26;;;;;;;10.20;5.30;;;;;;;;;;4446033;32;20255;-53
2022/04/24 06:43:04;;;;;;;9.97;5.90;;;;;;;;;;4445714;32;20258;-51
2022/04/24 06:45:43;;;;;;;16.57;5.87;;;;;;;;;;4448415;32;20274;-52
2022/04/24 06:48:14;;;;;;;9.43;5.80;;;;;;;;;;4441347;32;20305;-52
2022/04/24 06:50:44;;;;;;;12.63;5.30;;;;;;;;;;4445710;32;20692;-53
2022/04/24 06:53:11;;;;;;;12.77;4.23;;;;;;;;;;4448465;32;20270;-52
2022/04/24 06:55:41;;;;;;;4.90;3.70;;;;;;;;;;4433194;32;20300;-52
2022/04/24 06:58:09;;;;;;;10.70;4.20;;;;;;;;;;4442849;32;21067;-51
2022/04/24 07:00:37;;;;;;;9.47;3.93;;;;;;;;;;4442287;32;20674;-53
2022/04/24 07:03:10;;;;;;;15.43;3.80;;;;;;;;;;4441368;32;20589;-53
2022/04/24 07:05:36;;;;;;;14.43;3.53;;;;;;;;;;4438024;32;20260;-54
2022/04/24 07:08:01;;;;;;;6.47;4.07;;;;;;;;;;4445752;32;20267;-53
2022/04/24 07:10:26;;;;;;;11.87;3.73;;;;;;;;;;4449860;32;20228;-53
2022/04/24 07:12:53;;;;;;;7.47;3.80;;;;;;;;;;4450570;32;20389;-54
2022/04/24 07:15:21;;;;;;;6.57;3.70;;;;;;;;;;4445707;32;20236;-54
2022/04/24 07:17:47;;;;;;;12.63;3.40;;;;;;;;;;4435067;32;20682;-54
2022/04/24 07:20:15;;;;;;;17.93;5.20;;;;;;;;;;4440380;32;20262;-53
2022/04/24 07:22:54;;;;;;;8.73;3.57;;;;;;;;;;4442731;32;20250;-52
2022/04/24 07:25:25;;;;;;;14.20;4.30;;;;;;;;;;4439942;32;20251;-52
2022/04/24 07:27:51;;;;;;;9.27;4.27;;;;;;;;;;4440787;32;20652;-53
2022/04/24 07:30:18;;;;;;;7.43;3.97;;;;;;;;;;4424527;32;20252;-53
2022/04/24 07:32:49;;;;;;;9.40;3.55;;;;;;;;;;4439949;32;20328;-53
2022/04/24 07:35:20;;;;;;;9.87;4.63;;;;;;;;;;4440738;32;20368;-52
2022/04/24 07:37:47;;;;;;;24.75;7.37;;;;;;;;;;4440819;32;20715;-53
2022/04/24 07:40:14;;;;;;;19.75;6.07;;;;;;;;;;4433964;32;20382;-53
2022/04/24 07:42:50;;;;;;;16.20;6.72;;;;;;;;;;4433736;32;20488;-54
2022/04/24 07:45:29;;;;;;;17.08;4.90;;;;;;;;;;4439675;32;20552;-52
2022/04/24 07:47:56;;;;;;;14.77;4.87;;;;;;;;;;4440380;32;20311;-52
2022/04/24 07:50:23;;;;;;;11.00;3.95;;;;;;;;;;4442108;32;20672;-53
2022/04/24 07:52:50;;;;;;;9.90;3.75;;;;;;;;;;4439491;32;20216;-53
2022/04/24 07:55:17;;;;;;;9.55;2.87;;;;;;;;;;4429023;32;20400;-53
2022/04/24 07:57:44;;;;;;;5.47;2.47;;;;;;;;;;4436249;32;20228;-54
2022/04/24 08:00:11;;;;;;;11.98;2.92;;;;;;;;;;4440703;32;20250;-53
2022/04/24 08:02:46;;;;;;;8.60;2.83;;;;;;;;;;4439656;32;20266;-53
2022/04/24 08:05:12;;;;;;;6.05;2.28;;;;;;;;;;4431755;32;20251;-53
2022/04/24 08:07:38;;;;;;;7.78;2.17;;;;;;;;;;4443068;32;20285;-53
2022/04/24 08:10:03;;;;;;;7.53;3.03;;;;;;;;;;4441434;32;20714;-53
2022/04/24 08:12:29;;;;;;;7.97;2.80;;;;;;;;;;4446063;32;20291;-54
2022/04/24 08:14:54;;;;;;;8.07;2.08;;;;;;;;;;4421161;32;20368;-54
2022/04/24 08:17:20;;;;;;;6.93;2.58;;;;;;;;;;4444317;32;21111;-54
2022/04/24 08:19:45;;;;;;;7.95;2.95;;;;;;;;;;4434279;32;20332;-55
2022/04/24 08:22:10;;;;;;;9.82;2.55;;;;;;;;;;4419282;32;20320;-54
2022/04/24 08:24:36;;;;;;;11.73;3.40;;;;;;;;;;4444907;32;20679;-54
2022/04/24 08:27:01;;;;;;;8.48;2.40;;;;;;;;;;4442637;32;20266;-54
2022/04/24 08:29:27;;;;;;;8.00;2.37;;;;;;;;;;4437067;32;20676;-54
2022/04/24 08:31:52;;;;;;;5.62;2.40;;;;;;;;;;4433173;32;20349;-54
2022/04/24 08:34:17;;;;;;;7.90;2.35;;;;;;;;;;4436583;32;21345;-53
2022/04/24 08:36:43;;;;;;;6.65;2.45;;;;;;;;;;4442196;32;20275;-53
2022/04/24 08:39:08;;;;;;;6.80;1.90;;;;;;;;;;4440904;32;20664;-53
2022/04/24 08:41:37;;;;;;;7.78;2.80;;;;;;;;;;4443729;32;20282;-54
2022/04/24 08:44:06;;;;;;;10.13;2.45;;;;;;;;;;4443353;32;20201;-52
2022/04/24 08:46:32;;;;;;;3.70;2.17;;;;;;;;;;4448561;32;20733;-52
2022/04/24 08:48:58;;;;;;;8.05;2.35;;;;;;;;;;4448919;32;20303;-54
2022/04/24 08:51:24;;;;;;;9.55;2.58;;;;;;;;;;4448446;32;20223;-52
2022/04/24 08:53:52;;;;;;;3.25;1.83;;;;;;;;;;4436093;32;20272;-53
2022/04/24 08:56:17;;;;;;;8.38;2.60;;;;;;;;;;4437721;32;20251;-53
2022/04/24 08:58:43;;;;;;;6.90;2.20;;;;;;;;;;4449802;32;20916;-53
2022/04/24 09:01:08;;;;;;;8.32;2.42;;;;;;;;;;4450929;32;20262;-52
2022/04/24 09:03:34;;;;;;;6.93;2.53;;;;;;;;;;4447429;32;20235;-52
2022/04/24 09:06:00;;;;;;;8.73;2.17;;;;;;;;;;4439455;32;20514;-53
2022/04/24 09:08:26;;;;;;;9.18;2.53;;;;;;;;;;4436038;32;20229;-53
2022/04/24 09:10:55;;;;;;;10.05;2.65;;;;;;;;;;4432885;32;20278;-53
2022/04/24 09:14:14;;;;;;;13.98;1.87;;;;;;;;;;4433185;32;20371;-53
2022/04/24 09:16:33;;;;;;;10.73;2.00;;;;;;;;;;4439840;32;20331;-53
2022/04/24 09:18:59;;;;;;;8.13;2.03;;;;;;;;;;4436685;32;20682;-52
2022/04/24 09:21:25;;;;;;;3.90;1.87;;;;;;;;;;4446120;32;20256;-53
2022/04/24 09:23:50;;;;;;;3.58;1.75;;;;;;;;;;4443409;32;20262;-53
2022/04/24 09:26:16;;;;;;;5.70;2.33;;;;;;;;;;4436423;32;20256;-53
2022/04/24 09:28:42;;;;;;;4.47;2.28;;;;;;;;;;4449573;32;20236;-53
2022/04/24 09:31:08;;;;;;;5.43;2.58;;;;;;;;;;4443435;32;20659;-55
2022/04/24 09:33:42;;;;;;;8.07;2.45;;;;;;;;;;4448651;32;20200;-52
2022/04/24 09:36:09;;;;;;;7.53;2.35;;;;;;;;;;4442367;32;20260;-53
2022/04/24 09:38:43;;;;;;;3.15;1.42;;;;;;;;;;4448240;32;20224;-53
2022/04/24 09:41:23;;;;;;;5.32;2.53;;;;;;;;;;4442730;32;20644;-53
2022/04/24 09:43:50;;;;;;;3.42;1.60;;;;;;;;;;4433261;32;20267;-53
2022/04/24 09:46:26;;;;;;;3.70;1.52;;;;;;;;;;4450618;32;20777;-53
2022/04/24 09:48:52;;;;;;;3.42;1.70;;;;;;;;;;4443841;32;20839;-52
2022/04/24 09:51:18;;;;;;;4.75;1.50;;;;;;;;;;4447143;32;20944;-52
2022/04/24 09:53:46;;;;;;;5.82;1.90;;;;;;;;;;4440972;32;20609;-52
2022/04/24 09:56:13;;;;;;;5.80;2.30;;;;;;;;;;4434876;32;20346;-52
2022/04/24 09:58:40;;;;;;;6.20;2.33;;;;;;;;;;4447541;32;20312;-52
2022/04/24 10:01:08;;;;;;;6.10;2.35;;;;;;;;;;4441901;32;20333;-52
2022/04/24 10:03:37;;;;;;;10.50;2.25;;;;;;;;;;4441532;32;20279;-53
2022/04/24 10:06:04;;;;;;;9.50;2.15;;;;;;;;;;4448152;32;20589;-53
2022/04/24 10:08:33;;;;;;;7.15;2.53;;;;;;;;;;4448154;32;20299;-52
2022/04/24 10:11:03;;;;;;;10.98;2.22;;;;;;;;;;4448591;32;20236;-53
2022/04/24 10:13:29;;;;;;;6.40;1.90;;;;;;;;;;4447129;32;20528;-53
2022/04/24 10:16:42;;;;;;;4.30;1.77;;;;;;;;;;4434199;32;20370;-52
2022/04/24 10:19:36;;;;;;;6.87;2.05;;;;;;;;;;4428773;32;20609;-53
2022/04/24 10:22:04;;;;;;;8.27;2.58;;;;;;;;;;4439561;32;20228;-53
2022/04/24 10:24:43;;;;;;;7.35;2.45;;;;;;;;;;4448374;32;20236;-52
2022/04/24 10:27:12;;;;;;;6.03;2.10;;;;;;;;;;4447048;32;20254;-53
2022/04/24 10:29:59;;;;;;;7.57;1.90;;;;;;;;;;4448357;32;20671;-53
2022/04/24 10:32:30;;;;;;;16.87;2.70;;;;;;;;;;4448395;32;20295;-53
2022/04/24 10:34:56;;;;;;;13.00;1.98;;;;;;;;;;4447929;32;20375;-53
2022/04/24 10:37:26;;;;;;;9.48;1.75;;;;;;;;;;4439891;32;20224;-52
2022/04/24 10:39:58;;;;;;;6.78;2.25;;;;;;;;;;4448580;32;20196;-52
2022/04/24 10:42:32;;;;;;;6.60;2.03;;;;;;;;;;4447650;32;20332;-52
2022/04/24 10:45:08;;;;;;;8.35;2.00;;;;;;;;;;4447195;32;20272;-52
2022/04/24 10:47:55;;;;;;;4.37;1.87;;;;;;;;;;4447576;32;20266;-53
2022/04/24 10:50:22;;;;;;;16.50;2.70;;;;;;;;;;4448005;32;20218;-53
2022/04/24 10:52:53;;;;;;;10.95;2.35;;;;;;;;;;4447903;32;20212;-53
2022/04/24 10:55:24;;;;;;;10.52;3.25;;;;;;;;;;4447009;32;20216;-53
2022/04/24 10:57:54;;;;;;;5.62;2.85;;;;;;;;;;4436667;32;20700;-52
2022/04/24 11:00:26;;;;;;;8.13;3.20;;;;;;;;;;4446719;32;20239;-52
2022/04/24 11:02:52;;;;;;;8.88;2.03;;;;;;;;;;4447265;32;20236;-53
2022/04/24 11:05:23;;;;;;;13.62;2.12;;;;;;;;;;4446829;32;20362;-53
2022/04/24 11:08:03;;;;;;;4.57;1.90;;;;;;;;;;4447211;32;20243;-54
2022/04/24 11:10:29;;;;;;;4.72;1.55;;;;;;;;;;4446779;32;20348;-53
2022/04/24 11:12:55;;;;;;;7.25;2.05;;;;;;;;;;4460378;32;20286;-53
2022/04/24 11:15:21;;;;;;;7.47;2.00;;;;;;;;;;4446966;32;20295;-53
2022/04/24 11:17:47;;;;;;;7.10;2.08;;;;;;;;;;4446671;32;20242;-53
2022/04/24 11:20:15;;;;;;;7.20;1.50;;;;;;;;;;4447611;32;20318;-54
2022/04/24 11:22:45;;;;;;;6.97;1.73;;;;;;;;;;4446537;32;20713;-54
2022/04/24 11:25:14;;;;;;;15.80;1.85;;;;;;;;;;4447381;32;20208;-54
2022/04/24 11:27:42;;;;;;;7.93;1.98;;;;;;;;;;4443892;32;20232;-54
2022/04/24 11:30:18;;;;;;;4.80;1.80;;;;;;;;;;4431971;32;20217;-54
2022/04/24 11:33:00;;;;;;;6.85;1.85;;;;;;;;;;4444455;32;20346;-54
2022/04/24 11:35:28;;;;;;;8.18;1.85;;;;;;;;;;4447180;32;20343;-54
2022/04/24 11:37:54;;;;;;;5.95;1.83;;;;;;;;;;4430606;32;20282;-53
2022/04/24 11:40:21;;;;;;;12.18;2.70;;;;;;;;;;4447568;32;20584;-52
2022/04/24 11:42:47;;;;;;;7.50;1.40;;;;;;;;;;4446641;32;20296;-54
2022/04/24 11:51:09;;;;;;;10.90;2.17;;;;;;;;;;4391063;32;20965;-53
2022/04/24 11:53:34;;;;;;;6.90;1.77;;;;;;;;;;4433335;32;20282;-54
2022/04/24 11:56:03;;;;;;;3.90;1.45;;;;;;;;;;4435094;32;20330;-53
2022/04/24 11:58:36;;;;;;;10.10;1.55;;;;;;;;;;4447060;32;20216;-53
2022/04/24 12:01:07;;;;;;;6.37;1.80;;;;;;;;;;4440793;32;20256;-54
2022/04/24 12:03:35;;;;;;;7.75;1.23;;;;;;;;;;4437239;32;20235;-53
2022/04/24 12:06:05;;;;;;;9.23;1.70;;;;;;;;;;4439905;32;20478;-53
2022/04/24 12:08:49;;;;;;;8.00;1.48;;;;;;;;;;4463060;32;20228;-54
2022/04/24 12:11:31;;;;;;;5.20;1.50;;;;;;;;;;4460079;32;20333;-54
2022/04/24 12:14:03;;;;;;;3.95;1.33;;;;;;;;;;4447486;32;20306;-54
2022/04/24 12:16:29;;;;;;;10.43;1.73;;;;;;;;;;4442037;32;20266;-53
2022/04/24 12:18:58;;;;;;;2.30;1.33;;;;;;;;;;4436505;32;20220;-54
2022/04/24 12:21:25;;;;;;;4.35;1.70;;;;;;;;;;4435674;32;20396;-53
2022/04/24 12:23:52;;;;;;;6.05;2.30;;;;;;;;;;4448649;32;20534;-53
2022/04/24 12:26:18;;;;;;;2.92;1.48;;;;;;;;;;4438877;32;20598;-54
2022/04/24 12:28:43;;;;;;;5.93;1.27;;;;;;;;;;4447981;32;20283;-54
2022/04/24 12:31:26;;;;;;;7.60;1.45;;;;;;;;;;4449960;32;20220;-53
2022/04/24 12:33:52;;;;;;;3.97;1.25;;;;;;;;;;4450297;32;20231;-53
2022/04/24 12:36:19;;;;;;;6.78;1.30;;;;;;;;;;4449067;32;20351;-54
2022/04/24 12:38:55;;;;;;;10.20;1.98;;;;;;;;;;4449428;32;20260;-54
2022/04/24 12:41:27;;;;;;;5.95;1.27;;;;;;;;;;4437825;32;20224;-54
2022/04/24 12:44:13;;;;;;;7.40;1.30;;;;;;;;;;4450279;32;20701;-54
2022/04/24 12:46:38;;;;;;;6.87;1.58;;;;;;;;;;4448743;32;20273;-55
2022/04/24 12:49:04;;;;;;;10.70;1.60;;;;;;;;;;4448564;32;20209;-53
2022/04/24 12:51:29;;;;;;;8.93;1.40;;;;;;;;;;4449326;32;20208;-54
2022/04/24 12:53:58;;;;;;;11.15;2.28;;;;;;;;;;4449945;32;20658;-53
2022/04/24 12:56:24;;;;;;;3.03;1.40;;;;;;;;;;4452910;32;20264;-53
2022/04/24 12:58:49;;;;;;;6.62;1.52;;;;;;;;;;4455781;32;20288;-53
2022/04/24 13:01:15;;;;;;;8.30;1.70;;;;;;;;;;4441653;32;20658;-53
2022/04/24 13:03:42;;;;;;;8.65;1.80;;;;;;;;;;4438575;32;20589;-53
2022/04/24 13:06:08;;;;;;;8.90;1.85;;;;;;;;;;4440380;32;20548;-53
2022/04/24 13:08:34;;;;;;;3.75;1.35;;;;;;;;;;4449649;32;20464;-54
2022/04/24 13:11:00;;;;;;;6.45;1.35;;;;;;;;;;4434916;32;20239;-53
2022/04/24 13:13:27;;;;;;;5.05;2.15;;;;;;;;;;4449535;32;20298;-53
2022/04/24 13:18:37;;;;;;;8.00;1.70;;;;;;;;;;4433796;32;20235;-53
2022/04/24 13:21:03;;;;;;;10.63;1.83;;;;;;;;;;4437997;32;20312;-53
2022/04/24 13:23:29;;;;;;;10.00;1.67;;;;;;;;;;4421598;32;20229;-53
2022/04/24 13:25:54;;;;;;;13.20;2.28;;;;;;;;;;4433930;32;20244;-55
2022/04/24 13:28:21;;;;;;;7.22;1.60;;;;;;;;;;4449286;32;20411;-53
2022/04/24 13:30:49;;;;;;;5.43;1.75;;;;;;;;;;4447321;32;20582;-54
2022/04/24 13:33:16;;;;;;;6.00;1.62;;;;;;;;;;4448141;32;20310;-53
2022/04/24 13:35:42;;;;;;;6.45;1.83;;;;;;;;;;4444963;32;20302;-53
2022/04/24 13:38:20;;;;;;;5.28;1.80;;;;;;;;;;4445717;32;20212;-53
2022/04/24 13:40:53;;;;;;;11.25;1.80;;;;;;;;;;4444031;32;20311;-55
2022/04/24 13:43:18;;;;;;;7.80;2.62;;;;;;;;;;4434472;32;20312;-53
2022/04/24 13:45:44;;;;;;;7.53;1.40;;;;;;;;;;4447508;32;20652;-53
2022/04/24 13:48:11;;;;;;;7.68;1.10;;;;;;;;;;4459302;32;20232;-54
2022/04/24 13:50:38;;;;;;;9.05;2.03;;;;;;;;;;4448028;32;20522;-54
2022/04/24 13:53:04;;;;;;;4.45;1.67;;;;;;;;;;4448323;32;20304;-54
2022/04/24 13:55:30;;;;;;;3.87;1.42;;;;;;;;;;4448778;32;20229;-54
2022/04/24 13:57:56;;;;;;;6.37;1.75;;;;;;;;;;4447400;32;20739;-54
2022/04/24 14:00:23;;;;;;;3.62;1.45;;;;;;;;;;4446485;32;20412;-54
2022/04/24 14:02:49;;;;;;;4.12;1.70;;;;;;;;;;4447985;32;20295;-54
2022/04/24 14:05:15;;;;;;;5.53;1.80;;;;;;;;;;4448375;32;20213;-54
2022/04/24 14:07:41;;;;;;;6.78;2.08;;;;;;;;;;4447862;32;20648;-54
2022/04/24 14:10:08;;;;;;;3.87;1.40;;;;;;;;;;4449066;32;20250;-54
2022/04/24 14:12:34;;;;;;;6.60;1.42;;;;;;;;;;4433529;32;20288;-54
2022/04/24 14:15:00;;;;;;;6.93;2.00;;;;;;;;;;4450561;32;20289;-54
2022/04/24 14:17:25;;;;;;;7.07;1.90;;;;;;;;;;4460177;32;20304;-54
2022/04/24 14:19:52;;;;;;;6.70;2.08;;;;;;;;;;4446661;32;20236;-54
2022/04/24 14:22:17;;;;;;;4.93;2.00;;;;;;;;;;4433774;32;20290;-54
2022/04/24 14:24:42;;;;;;;6.32;2.05;;;;;;;;;;4434406;32;20603;-54
2022/04/24 14:27:08;;;;;;;8.20;1.80;;;;;;;;;;4448109;32;20250;-54
2022/04/24 14:29:34;;;;;;;5.97;1.55;;;;;;;;;;4448258;32;20238;-54
2022/04/24 14:31:59;;;;;;;5.82;1.75;;;;;;;;;;4443134;32;20326;-54
2022/04/24 14:34:25;;;;;;;15.43;1.90;;;;;;;;;;4439623;32;20315;-54
2022/04/24 14:36:51;;;;;;;6.85;2.08;;;;;;;;;;4430567;32;20248;-56
2022/04/24 14:39:17;;;;;;;7.37;2.00;;;;;;;;;;4439639;32;20240;-54
2022/04/24 14:41:43;;;;;;;11.70;1.80;;;;;;;;;;4448054;32;20311;-56
2022/04/24 14:44:08;;;;;;;9.32;2.05;;;;;;;;;;4445690;32;20252;-55